Time;durP1;ratioP1;P1;durP2;ratioP2;P2;SDS_P1;SDS_P2;PMS_P1;PMS_P2;Temp;Humidity;BMP_temperature;BMP_pressure;BME280_temperature;BME280_humidity;BME280_pressure;Samples;Min_cycle;Max_cycle;Signal;HPM_P1;HPM_P2
2022/03/22 00:04:35;;;;;;;1.10;0.20;;;11.00;76.00;;;;;;20676208;28;20057;-65
2022/03/22 00:14:37;;;;;;;1.35;0.30;;;10.90;76.40;;;;;;20675897;28;20138;-65
2022/03/22 00:24:39;;;;;;;0.85;0.20;;;10.90;76.50;;;;;;20674973;28;20046;-63
2022/03/22 00:34:47;;;;;;;0.82;0.30;;;11.00;75.90;;;;;;20674882;28;20050;-66
2022/03/22 00:44:48;;;;;;;0.52;0.30;;;11.00;76.00;;;;;;20674682;28;20061;-64
2022/03/22 00:54:49;;;;;;;0.75;0.30;;;11.00;76.40;;;;;;20672479;28;20055;-63
2022/03/22 01:04:51;;;;;;;0.88;0.22;;;11.00;76.30;;;;;;20673818;28;20054;-58
2022/03/22 01:14:52;;;;;;;3.30;0.28;;;11.00;76.30;;;;;;20671835;28;20050;-57
2022/03/22 01:24:54;;;;;;;0.22;0.10;;;11.00;76.20;;;;;;20672181;28;20093;-61
2022/03/22 01:34:55;;;;;;;0.75;0.10;;;11.00;76.00;;;;;;20673175;28;20459;-61
2022/03/22 01:44:56;;;;;;;1.35;0.20;;;11.00;76.30;;;;;;20670785;28;20082;-63
2022/03/22 01:54:58;;;;;;;0.70;0.10;;;10.90;76.70;;;;;;20683037;28;20050;-63
2022/03/22 02:15:20;;;;;;;0.43;0.10;;;10.80;77.50;;;;;;20666888;28;20050;-65
2022/03/22 02:25:24;;;;;;;0.40;0.20;;;10.70;77.70;;;;;;20666840;28;20101;-65
2022/03/22 02:35:28;;;;;;;1.00;0.20;;;10.70;78.20;;;;;;20667369;28;20061;-63
2022/03/22 02:45:34;;;;;;;1.60;0.10;;;10.60;78.70;;;;;;20667223;28;20058;-57
2022/03/22 02:55:39;;;;;;;1.88;0.28;;;10.60;79.20;;;;;;20665732;28;20137;-63
2022/03/22 03:05:43;;;;;;;0.40;0.13;;;10.50;79.30;;;;;;20666327;28;20050;-57
2022/03/22 03:15:47;;;;;;;0.40;0.15;;;10.50;79.60;;;;;;20672724;28;20057;-58
2022/03/22 03:25:51;;;;;;;0.30;0.17;;;10.50;79.80;;;;;;20686206;28;20486;-60
2022/03/22 03:35:54;;;;;;;1.02;0.20;;;10.60;79.40;;;;;;20682317;28;20082;-63
2022/03/22 03:56:17;;;;;;;0.10;0.00;;;10.70;78.90;;;;;;20682499;28;20054;-58
2022/03/22 04:06:19;;;;;;;0.30;0.20;;;10.70;78.50;;;;;;20682042;28;20057;-57
2022/03/22 04:16:21;;;;;;;0.75;0.10;;;10.70;78.40;;;;;;20677030;28;20399;-58
2022/03/22 04:26:24;;;;;;;0.10;0.10;;;10.80;78.00;;;;;;20675942;28;20577;-60
2022/03/22 04:36:27;;;;;;;0.22;0.08;;;10.80;77.90;;;;;;20676208;28;20050;-58
2022/03/22 04:46:48;;;;;;;0.68;0.15;;;10.80;77.90;;;;;;20675741;28;20057;-60
2022/03/22 04:57:09;;;;;;;0.20;0.10;;;10.80;78.00;;;;;;20674417;28;20046;-58
2022/03/22 05:07:14;;;;;;;0.47;0.10;;;10.80;78.20;;;;;;20671707;28;20055;-59
2022/03/22 05:17:21;;;;;;;1.42;0.20;;;10.80;78.40;;;;;;20671265;28;20077;-58
2022/03/22 05:27:25;;;;;;;0.30;0.15;;;10.80;78.30;;;;;;20670010;28;20054;-57
2022/03/22 05:37:27;;;;;;;0.22;0.10;;;10.70;78.50;;;;;;20668087;28;20054;-59
2022/03/22 05:47:31;;;;;;;1.00;0.20;;;10.80;78.90;;;;;;20668275;28;20086;-61
2022/03/22 05:57:33;;;;;;;0.30;0.17;;;10.70;79.40;;;;;;20668011;28;20518;-60
2022/03/22 06:07:36;;;;;;;1.10;0.43;;;10.70;79.50;;;;;;20667834;28;20081;-58
2022/03/22 06:17:38;;;;;;;0.70;0.30;;;10.70;79.50;;;;;;20665214;28;20050;-62
2022/03/22 06:27:42;;;;;;;0.52;0.20;;;10.80;79.40;;;;;;20666410;28;20089;-56
2022/03/22 06:37:44;;;;;;;1.05;0.43;;;10.80;79.70;;;;;;20666704;28;20050;-56
2022/03/22 06:47:46;;;;;;;2.08;0.38;;;10.80;79.70;;;;;;20665763;28;20121;-57
2022/03/22 06:57:49;;;;;;;1.00;0.43;;;10.80;79.80;;;;;;20681224;28;20058;-62
2022/03/22 07:07:51;;;;;;;83.45;46.90;;;10.80;80.00;;;;;;20680179;28;20145;-60
2022/03/22 07:17:52;;;;;;;1.80;0.65;;;10.90;80.00;;;;;;20679632;28;20093;-62
2022/03/22 07:27:57;;;;;;;0.90;0.50;;;11.00;79.80;;;;;;20678845;28;20058;-64
2022/03/22 07:37:59;;;;;;;1.33;0.82;;;11.00;79.80;;;;;;20676024;28;20148;-60
2022/03/22 07:48:01;;;;;;;0.68;0.30;;;11.00;79.40;;;;;;20676113;28;20133;-63
2022/03/22 07:58:07;;;;;;;0.90;0.40;;;11.10;79.20;;;;;;20676284;28;20065;-57
2022/03/22 08:08:08;;;;;;;1.15;0.38;;;11.30;78.90;;;;;;20676674;28;20051;-58
2022/03/22 08:18:10;;;;;;;1.50;0.40;;;11.40;78.60;;;;;;20674554;28;20050;-63
2022/03/22 08:28:13;;;;;;;1.77;0.40;;;11.80;77.40;;;;;;20672379;28;20504;-65
2022/03/22 08:38:16;;;;;;;0.70;0.40;;;11.90;76.70;;;;;;20671930;28;20058;-64
2022/03/22 08:48:17;;;;;;;2.40;0.75;;;11.80;76.40;;;;;;20667771;28;20053;-60
2022/03/22 08:58:20;;;;;;;2.42;0.57;;;11.80;76.10;;;;;;20670487;28;20054;-61
2022/03/22 09:08:22;;;;;;;0.90;0.50;;;11.70;76.30;;;;;;20670120;28;20070;-63
2022/03/22 09:18:26;;;;;;;1.23;0.43;;;11.90;75.90;;;;;;20670722;28;20050;-63
2022/03/22 09:28:27;;;;;;;0.93;0.38;;;12.20;75.00;;;;;;20668298;28;20047;-61
2022/03/22 09:38:29;;;;;;;2.05;0.30;;;12.40;74.90;;;;;;20668930;28;20384;-63
2022/03/22 09:48:33;;;;;;;2.15;0.47;;;12.60;73.50;;;;;;20668389;28;20410;-60
2022/03/22 09:58:34;;;;;;;2.03;0.30;;;12.30;73.90;;;;;;20666810;28;20058;-61
2022/03/22 10:08:37;;;;;;;0.40;0.35;;;12.40;73.80;;;;;;20668269;28;20490;-63
2022/03/22 10:18:40;;;;;;;9.90;0.82;;;12.60;73.00;;;;;;20666344;28;20104;-59
2022/03/22 10:28:50;;;;;;;0.90;0.50;;;12.70;72.50;;;;;;20665712;28;20046;-59
2022/03/22 10:38:59;;;;;;;0.90;0.30;;;12.60;72.50;;;;;;20665553;28;20062;-62
2022/03/22 10:49:10;;;;;;;0.23;0.20;;;12.40;73.40;;;;;;20665418;28;20109;-61
2022/03/22 10:59:14;;;;;;;0.98;0.40;;;12.30;73.20;;;;;;20665960;28;20919;-62
2022/03/22 11:09:17;;;;;;;0.50;0.30;;;12.50;72.80;;;;;;20665757;28;20080;-68
2022/03/22 11:19:20;;;;;;;1.08;0.22;;;12.90;71.50;;;;;;20665241;28;20078;-71
2022/03/22 11:29:25;;;;;;;2.05;0.40;;;13.30;70.70;;;;;;20664230;28;20058;-65
2022/03/22 11:49:49;;;;;;;5.32;0.50;;;13.40;69.50;;;;;;20677786;28;20050;-59
2022/03/22 11:59:53;;;;;;;1.88;0.40;;;13.90;69.20;;;;;;20678688;28;20046;-61
2022/03/22 12:10:07;;;;;;;6.50;1.45;;;14.00;68.40;;;;;;20677182;28;20175;-67
2022/03/22 12:20:15;;;;;;;1.00;0.55;;;13.90;68.80;;;;;;20677020;28;20055;-68
2022/03/22 12:30:18;;;;;;;2.70;0.45;;;14.00;68.00;;;;;;20674964;28;20150;-61
2022/03/22 12:40:22;;;;;;;0.22;0.20;;;14.20;67.20;;;;;;20673217;28;20050;-63
2022/03/22 12:50:25;;;;;;;0.90;0.30;;;14.10;66.80;;;;;;20673362;28;20050;-59
2022/03/22 13:00:40;;;;;;;1.58;0.50;;;14.00;66.70;;;;;;20672918;28;20050;-65
2022/03/22 13:21:01;;;;;;;2.67;0.85;;;14.20;69.10;;;;;;20670623;28;20510;-60
2022/03/22 13:31:04;;;;;;;1.25;0.50;;;13.90;70.50;;;;;;20671089;28;20097;-64
2022/03/22 13:41:07;;;;;;;1.73;0.40;;;13.80;71.70;;;;;;20669078;28;20050;-63
2022/03/22 13:51:09;;;;;;;1.10;0.63;;;13.80;71.90;;;;;;20669430;28;20446;-62
2022/03/22 14:01:13;;;;;;;1.65;0.60;;;13.70;72.50;;;;;;20668737;28;20502;-63
2022/03/22 14:11:16;;;;;;;34.45;20.38;;;13.90;72.70;;;;;;20668270;28;20046;-62
2022/03/22 14:21:17;;;;;;;2.85;1.05;;;13.90;72.40;;;;;;20666357;28;20058;-62
2022/03/22 14:31:19;;;;;;;1.85;0.80;;;13.70;72.20;;;;;;20668052;28;20053;-62
2022/03/22 14:41:27;;;;;;;2.38;0.98;;;13.70;71.40;;;;;;20666426;28;20053;-63
2022/03/22 15:01:49;;;;;;;1.52;1.10;;;13.80;70.10;;;;;;20664440;28;20426;-64
2022/03/22 15:11:52;;;;;;;2.45;1.13;;;14.30;68.50;;;;;;20669106;28;20513;-62
2022/03/22 15:21:54;;;;;;;1.77;0.93;;;14.50;67.40;;;;;;20679976;28;20054;-62
2022/03/22 15:31:56;;;;;;;4.20;1.33;;;14.70;65.90;;;;;;20679338;28;20054;-62
2022/03/22 15:41:57;;;;;;;4.00;0.93;;;14.50;66.30;;;;;;20677928;28;20061;-61
2022/03/22 15:51:59;;;;;;;7.22;0.80;;;14.20;65.20;;;;;;20676837;28;20076;-61
2022/03/22 16:02:00;;;;;;;2.67;1.05;;;14.10;65.20;;;;;;20676742;28;20192;-62
2022/03/22 16:12:04;;;;;;;2.13;1.10;;;14.80;64.90;;;;;;20676061;28;20046;-64
2022/03/22 16:22:06;;;;;;;3.50;1.10;;;15.40;62.60;;;;;;20671800;28;20153;-62
2022/03/22 16:32:08;;;;;;;4.70;1.92;;;15.20;62.60;;;;;;20678782;28;20134;-61
2022/03/22 16:42:12;;;;;;;4.20;1.95;;;14.50;62.10;;;;;;20674933;28;20046;-63
2022/03/22 16:52:19;;;;;;;4.65;2.00;;;14.00;63.80;;;;;;20668609;28;20061;-67
2022/03/22 17:02:21;;;;;;;4.43;1.90;;;15.20;61.50;;;;;;20650252;28;20101;-70
2022/03/22 17:12:22;;;;;;;5.13;2.60;;;15.70;60.20;;;;;;20593147;28;20061;-61
2022/03/22 17:22:25;;;;;;;7.05;2.30;;;15.70;59.50;;;;;;20591061;28;20051;-66
2022/03/22 17:32:27;;;;;;;5.55;2.55;;;15.70;59.10;;;;;;20588966;28;20047;-60
2022/03/22 17:42:28;;;;;;;7.25;3.05;;;15.90;58.60;;;;;;20589739;28;20057;-60
2022/03/22 17:52:30;;;;;;;6.22;2.78;;;15.70;58.90;;;;;;20587988;28;20173;-58
2022/03/22 18:02:34;;;;;;;6.30;3.03;;;15.80;58.20;;;;;;20588230;28;20086;-58
2022/03/22 18:12:37;;;;;;;9.35;3.08;;;15.90;57.60;;;;;;20588638;28;20463;-61
2022/03/22 18:22:39;;;;;;;4.72;2.78;;;15.80;57.30;;;;;;20586591;28;20062;-64
2022/03/22 18:32:41;;;;;;;7.90;3.03;;;15.80;57.10;;;;;;20587622;28;20055;-68
2022/03/22 18:42:47;;;;;;;7.53;3.20;;;15.70;57.20;;;;;;20587112;28;20562;-59
2022/03/22 18:52:49;;;;;;;9.98;4.35;;;15.50;57.20;;;;;;20600097;28;20088;-56
2022/03/22 19:02:50;;;;;;;8.43;3.38;;;15.40;57.30;;;;;;20600956;28;20097;-58
2022/03/22 19:12:53;;;;;;;5.40;2.65;;;15.40;57.30;;;;;;20600276;28;20062;-67
2022/03/22 19:22:54;;;;;;;8.05;3.10;;;15.30;57.00;;;;;;20599738;28;20078;-63
2022/03/22 19:33:06;;;;;;;8.05;3.60;;;15.10;57.10;;;;;;20599782;28;20078;-67
2022/03/22 19:43:11;;;;;;;90.70;43.40;;;14.60;57.60;;;;;;20598680;28;20059;-72
2022/03/22 19:53:16;;;;;;;83.40;40.05;;;14.30;59.10;;;;;;20599448;28;20138;-76
2022/03/22 20:03:19;;;;;;;45.03;23.38;;;13.80;59.70;;;;;;20596598;28;20050;-65
2022/03/22 20:13:21;;;;;;;44.38;17.70;;;13.50;60.20;;;;;;20596994;28;20102;-75
2022/03/22 20:23:22;;;;;;;116.88;52.38;;;13.60;60.10;;;;;;20595617;28;20392;-67
2022/03/22 20:33:24;;;;;;;55.22;29.45;;;14.40;58.70;;;;;;20594842;28;20050;-63
2022/03/22 20:43:27;;;;;;;23.55;12.60;;;14.40;58.20;;;;;;20593870;28;20142;-64
2022/03/22 20:53:28;;;;;;;9.82;3.95;;;14.00;58.80;;;;;;20608728;28;20516;-70
2022/03/22 21:03:34;;;;;;;7.53;4.32;;;13.90;57.40;;;;;;20592893;28;20055;-62
2022/03/22 21:13:38;;;;;;;7.05;4.13;;;12.60;60.20;;;;;;20591911;28;20141;-66
2022/03/22 21:23:40;;;;;;;10.35;4.00;;;12.00;61.20;;;;;;20591475;28;20534;-64
2022/03/22 21:33:42;;;;;;;8.02;3.63;;;11.70;61.80;;;;;;20605554;28;20506;-68
2022/03/22 21:43:45;;;;;;;7.00;3.90;;;11.50;63.30;;;;;;20590189;28;20503;-65
2022/03/22 21:53:49;;;;;;;6.97;3.50;;;11.30;64.10;;;;;;20590047;28;20084;-68
2022/03/22 22:03:51;;;;;;;12.63;4.10;;;11.40;63.80;;;;;;20588245;28;20051;-65
2022/03/22 22:13:53;;;;;;;21.00;11.07;;;11.30;63.80;;;;;;20587684;28;20046;-68
2022/03/22 22:23:55;;;;;;;8.70;3.70;;;11.30;64.30;;;;;;20586727;28;20105;-65
2022/03/22 22:34:00;;;;;;;10.63;3.58;;;11.30;64.20;;;;;;20585386;28;20042;-61
2022/03/22 22:44:02;;;;;;;8.75;4.00;;;11.20;64.20;;;;;;20587462;28;20138;-65
2022/03/22 22:54:05;;;;;;;5.68;3.50;;;11.10;65.20;;;;;;20587018;28;20514;-64
2022/03/22 23:04:11;;;;;;;5.18;3.15;;;11.10;65.60;;;;;;20586176;28;20051;-65
2022/03/22 23:14:13;;;;;;;8.85;3.47;;;11.00;66.20;;;;;;20585480;28;20085;-65
2022/03/22 23:24:16;;;;;;;8.48;3.70;;;10.80;67.10;;;;;;20585257;28;20058;-67
2022/03/22 23:34:19;;;;;;;8.23;4.45;;;10.80;67.60;;;;;;20590063;28;20054;-66
2022/03/22 23:44:20;;;;;;;10.13;3.83;;;10.70;67.90;;;;;;20598739;28;20142;-61
2022/03/22 23:54:22;;;;;;;7.20;4.07;;;10.80;67.70;;;;;;20598184;28;20046;-65
